Time;durP1;ratioP1;P1;durP2;ratioP2;P2;SDS_P1;SDS_P2;PMS_P1;PMS_P2;Temp;Humidity;BMP_temperature;BMP_pressure;BME280_temperature;BME280_humidity;BME280_pressure;Samples;Min_cycle;Max_cycle;Signal;HPM_P1;HPM_P2
2022/09/25 00:02:26;;;;;;;10.10;9.80;;;13.30;99.90;;;;;;6185193;23;20207;-80
2022/09/25 00:04:54;;;;;;;10.40;10.10;;;13.20;99.90;;;;;;6184064;23;20247;-80
2022/09/25 00:07:22;;;;;;;10.40;10.10;;;13.20;99.90;;;;;;6184677;23;20196;-80
2022/09/25 00:09:49;;;;;;;10.40;10.10;;;13.20;99.90;;;;;;6184264;23;20215;-80
2022/09/25 00:12:20;;;;;;;10.50;10.20;;;13.30;99.90;;;;;;6183657;23;20205;-80
2022/09/25 00:14:50;;;;;;;10.90;10.50;;;13.30;99.90;;;;;;6196145;23;20215;-80
2022/09/25 00:17:18;;;;;;;10.60;10.30;;;13.30;99.90;;;;;;6213081;23;20235;-80
2022/09/25 00:19:50;;;;;;;10.50;10.20;;;13.30;99.90;;;;;;6213272;23;20231;-80
2022/09/25 00:22:18;;;;;;;10.40;10.10;;;13.30;99.90;;;;;;6213439;23;20271;-80
2022/09/25 00:24:45;;;;;;;10.60;10.30;;;13.30;99.90;;;;;;6212202;23;20218;-80
2022/09/25 00:27:13;;;;;;;10.57;10.27;;;13.30;99.90;;;;;;6212618;23;20223;-81
2022/09/25 00:29:43;;;;;;;10.50;10.20;;;13.30;99.90;;;;;;6213190;23;20222;-80
2022/09/25 00:32:12;;;;;;;10.63;10.33;;;13.30;99.90;;;;;;6211710;23;20290;-81
2022/09/25 00:34:40;;;;;;;10.40;10.10;;;13.30;99.90;;;;;;6211054;23;20215;-81
2022/09/25 00:37:08;;;;;;;10.50;10.20;;;13.30;99.90;;;;;;6212643;23;20202;-80
2022/09/25 00:39:36;;;;;;;10.60;10.30;;;13.20;99.90;;;;;;6206942;23;20231;-80
2022/09/25 00:42:04;;;;;;;10.50;10.20;;;13.20;99.90;;;;;;6206282;23;20219;-81
2022/09/25 00:44:59;;;;;;;10.60;10.30;;;13.10;99.90;;;;;;6204447;23;20290;-81
2022/09/25 00:47:51;;;;;;;10.67;10.30;;;13.00;99.90;;;;;;6183990;23;20200;-80
2022/09/25 00:50:28;;;;;;;10.70;10.40;;;13.00;99.90;;;;;;6204249;23;20192;-80
2022/09/25 00:53:02;;;;;;;10.80;10.40;;;13.00;99.90;;;;;;6203230;23;20247;-80
2022/09/25 00:55:32;;;;;;;10.83;10.43;;;12.90;99.90;;;;;;6203253;23;20207;-80
2022/09/25 00:58:02;;;;;;;10.90;10.50;;;12.90;99.90;;;;;;6202273;23;20211;-81
2022/09/25 01:00:32;;;;;;;10.50;10.20;;;12.90;99.90;;;;;;6202462;23;20256;-80
2022/09/25 01:03:00;;;;;;;10.60;10.30;;;12.80;99.90;;;;;;6202253;23;20247;-80
2022/09/25 01:05:33;;;;;;;10.67;10.37;;;12.80;99.90;;;;;;6200742;23;20204;-80
2022/09/25 01:08:05;;;;;;;11.00;10.60;;;12.80;99.90;;;;;;6209946;23;20180;-80
2022/09/25 01:10:33;;;;;;;10.93;10.53;;;12.80;99.90;;;;;;6206379;23;20196;-80
2022/09/25 01:13:03;;;;;;;10.67;10.37;;;12.80;99.90;;;;;;6202665;23;20198;-80
2022/09/25 01:15:43;;;;;;;10.90;10.50;;;12.80;99.90;;;;;;6200915;23;20195;-80
2022/09/25 01:18:25;;;;;;;10.60;10.30;;;12.80;99.90;;;;;;6200749;23;20247;-80
2022/09/25 01:21:17;;;;;;;10.70;10.40;;;12.80;99.90;;;;;;6200973;23;20199;-80
2022/09/25 01:24:35;;;;;;;10.77;10.47;;;12.80;99.90;;;;;;6199701;23;20254;-80
2022/09/25 01:27:33;;;;;;;10.77;10.47;;;12.80;99.90;;;;;;6154471;23;20235;-80
2022/09/25 01:30:09;;;;;;;10.60;10.30;;;12.70;99.90;;;;;;6200111;23;20230;-80
2022/09/25 01:32:57;;;;;;;10.50;10.20;;;12.70;99.90;;;;;;6199767;23;20201;-80
2022/09/25 01:35:38;;;;;;;10.80;10.50;;;12.70;99.90;;;;;;6199372;23;20214;-80
2022/09/25 01:38:20;;;;;;;10.43;10.13;;;12.80;99.90;;;;;;6200707;23;20196;-81
2022/09/25 01:40:54;;;;;;;10.60;10.30;;;12.80;99.90;;;;;;6200022;23;20192;-80
2022/09/25 01:43:28;;;;;;;10.40;10.10;;;12.90;99.90;;;;;;6200599;23;20617;-80
2022/09/25 01:46:00;;;;;;;10.60;10.30;;;12.90;99.90;;;;;;6199027;23;20210;-80
2022/09/25 01:48:31;;;;;;;10.50;10.20;;;12.90;99.90;;;;;;6200043;23;20251;-80
2022/09/25 01:51:03;;;;;;;10.80;10.50;;;12.90;99.90;;;;;;6200399;23;20188;-80
2022/09/25 01:53:39;;;;;;;10.73;10.40;;;12.90;99.90;;;;;;6199601;23;20195;-80
2022/09/25 01:56:14;;;;;;;10.40;10.10;;;12.90;99.90;;;;;;6199151;23;20210;-80
2022/09/25 01:58:48;;;;;;;10.60;10.30;;;12.90;99.90;;;;;;6199991;23;20197;-80
2022/09/25 02:01:22;;;;;;;10.60;10.30;;;12.90;99.90;;;;;;6199609;23;20218;-80
2022/09/25 02:03:56;;;;;;;10.53;10.23;;;12.90;99.90;;;;;;6199613;23;20199;-80
2022/09/25 02:06:25;;;;;;;10.70;10.40;;;12.90;99.90;;;;;;6198253;23;20275;-80
2022/09/25 02:08:58;;;;;;;10.80;10.50;;;12.90;99.90;;;;;;6199214;23;20206;-80
2022/09/25 02:11:31;;;;;;;10.60;10.30;;;12.90;99.90;;;;;;6199721;23;20198;-79
2022/09/25 02:14:06;;;;;;;10.50;10.20;;;12.90;99.90;;;;;;6199175;23;20188;-80
2022/09/25 02:16:42;;;;;;;10.67;10.37;;;12.90;99.90;;;;;;6198203;23;20202;-80
2022/09/25 02:22:03;;;;;;;10.50;10.20;;;12.90;99.90;;;;;;6199642;23;20190;-80
2022/09/25 02:24:40;;;;;;;10.70;10.40;;;12.80;99.90;;;;;;6199047;23;20206;-80
2022/09/25 02:27:08;;;;;;;10.40;10.10;;;12.70;99.90;;;;;;6198992;23;20198;-80
2022/09/25 02:29:37;;;;;;;10.60;10.30;;;12.70;99.90;;;;;;6199530;23;20282;-80
2022/09/25 02:32:10;;;;;;;10.27;9.97;;;12.70;99.90;;;;;;6198541;23;20204;-80
2022/09/25 02:34:38;;;;;;;10.53;10.23;;;12.60;99.90;;;;;;6198499;23;20316;-79
2022/09/25 02:37:12;;;;;;;10.60;10.30;;;12.60;99.90;;;;;;6199274;23;20286;-79
2022/09/25 02:39:42;;;;;;;10.60;10.30;;;12.50;99.90;;;;;;6198675;23;20290;-79
2022/09/25 02:42:29;;;;;;;10.47;10.17;;;12.50;99.90;;;;;;6199441;23;20202;-79
2022/09/25 02:45:12;;;;;;;10.37;10.07;;;12.50;99.90;;;;;;6204914;23;20250;-79
2022/09/25 02:47:53;;;;;;;10.50;10.20;;;12.50;99.90;;;;;;6210086;23;20243;-79
2022/09/25 02:50:26;;;;;;;10.30;10.00;;;12.50;99.90;;;;;;6206347;23;20282;-79
2022/09/25 02:53:03;;;;;;;10.50;10.20;;;12.50;99.90;;;;;;6204587;23;20251;-79
2022/09/25 02:55:40;;;;;;;10.57;10.27;;;12.40;99.90;;;;;;6202328;23;20270;-79
2022/09/25 02:58:14;;;;;;;10.60;10.30;;;12.40;99.90;;;;;;6201123;23;20215;-79
2022/09/25 03:00:45;;;;;;;10.70;10.40;;;12.40;99.90;;;;;;6201035;23;20254;-79
2022/09/25 03:03:18;;;;;;;10.60;10.30;;;12.40;99.90;;;;;;6210294;23;20211;-79
2022/09/25 03:05:47;;;;;;;10.60;10.30;;;12.40;99.90;;;;;;6203303;23;20227;-79
2022/09/25 03:11:02;;;;;;;10.90;10.50;;;12.30;99.90;;;;;;6200858;23;20191;-79
2022/09/25 03:13:32;;;;;;;10.90;10.50;;;12.30;99.90;;;;;;6199553;23;20199;-79
2022/09/25 03:16:03;;;;;;;10.70;10.40;;;12.30;99.90;;;;;;6199301;23;20752;-78
2022/09/25 03:18:32;;;;;;;10.40;10.10;;;12.30;99.90;;;;;;6199697;23;20187;-79
2022/09/25 03:21:00;;;;;;;10.43;10.13;;;12.30;99.90;;;;;;6198383;23;20282;-79
2022/09/25 03:23:27;;;;;;;10.30;10.00;;;12.20;99.90;;;;;;6198523;23;20298;-79
2022/09/25 03:25:56;;;;;;;10.50;10.20;;;12.20;99.90;;;;;;6197713;23;20218;-78
2022/09/25 03:28:25;;;;;;;10.40;10.10;;;12.20;99.90;;;;;;6198764;23;20266;-79
2022/09/25 03:30:59;;;;;;;10.80;10.40;;;12.20;99.90;;;;;;6198803;23;20216;-79
2022/09/25 03:33:28;;;;;;;10.60;10.30;;;12.30;99.90;;;;;;6197905;23;20195;-78
2022/09/25 03:36:11;;;;;;;10.90;10.50;;;12.30;99.90;;;;;;6197487;23;20303;-78
2022/09/25 03:38:40;;;;;;;11.00;10.60;;;12.30;99.90;;;;;;6196785;23;20257;-78
2022/09/25 03:41:11;;;;;;;10.60;10.30;;;12.30;99.90;;;;;;6196985;23;20192;-78
2022/09/25 03:43:42;;;;;;;10.80;10.40;;;12.30;99.90;;;;;;6197632;23;20219;-79
2022/09/25 03:46:12;;;;;;;10.60;10.30;;;12.30;99.90;;;;;;6196290;23;20195;-78
2022/09/25 03:48:41;;;;;;;10.60;10.30;;;12.30;99.90;;;;;;6197358;23;20192;-78
2022/09/25 03:51:09;;;;;;;10.60;10.30;;;12.40;99.90;;;;;;6200861;23;20192;-80
2022/09/25 03:53:37;;;;;;;10.90;10.50;;;12.30;99.90;;;;;;6199755;23;20196;-79
2022/09/25 03:56:09;;;;;;;10.67;10.37;;;12.40;99.90;;;;;;6197813;23;20259;-79
2022/09/25 03:58:36;;;;;;;10.63;10.33;;;12.40;99.90;;;;;;6198864;23;20277;-78
2022/09/25 04:01:09;;;;;;;10.50;10.20;;;12.40;99.90;;;;;;6202106;23;20282;-80
2022/09/25 04:03:38;;;;;;;10.63;10.33;;;12.40;99.90;;;;;;6201613;23;20194;-80
2022/09/25 04:06:08;;;;;;;10.50;10.20;;;12.30;99.90;;;;;;6200253;23;20207;-80
2022/09/25 04:08:37;;;;;;;10.63;10.33;;;12.30;99.90;;;;;;6200800;23;20275;-80
2022/09/25 04:11:07;;;;;;;10.43;10.13;;;12.30;99.90;;;;;;6200405;23;20196;-80
2022/09/25 04:13:40;;;;;;;10.60;10.30;;;12.30;99.90;;;;;;6200789;23;20266;-80
2022/09/25 04:16:08;;;;;;;10.50;10.20;;;12.20;99.90;;;;;;6199396;23;20200;-80
2022/09/25 04:18:36;;;;;;;10.40;10.10;;;12.20;99.90;;;;;;6199131;23;20230;-80
2022/09/25 04:21:07;;;;;;;10.50;10.20;;;12.20;99.90;;;;;;6199976;23;20187;-78
2022/09/25 04:23:38;;;;;;;10.53;10.23;;;12.10;99.90;;;;;;6199046;23;20196;-79
2022/09/25 04:26:07;;;;;;;10.50;10.20;;;12.20;99.90;;;;;;6198194;23;20262;-81
2022/09/25 04:28:35;;;;;;;10.50;10.20;;;12.10;99.90;;;;;;6200477;23;20196;-79
2022/09/25 04:31:05;;;;;;;10.30;10.00;;;12.20;99.90;;;;;;6212169;23;20230;-79
2022/09/25 04:33:46;;;;;;;10.90;10.50;;;12.10;99.90;;;;;;6207171;23;20271;-80
2022/09/25 04:36:15;;;;;;;10.70;10.40;;;12.10;99.90;;;;;;6204968;23;20191;-79
2022/09/25 04:38:44;;;;;;;10.53;10.23;;;12.20;99.90;;;;;;6203584;23;20235;-79
2022/09/25 04:41:11;;;;;;;10.33;10.03;;;12.20;99.90;;;;;;6203355;23;20231;-80
2022/09/25 04:43:40;;;;;;;10.40;10.10;;;12.20;99.90;;;;;;6202621;23;20227;-80
2022/09/25 04:46:09;;;;;;;10.47;10.17;;;12.20;99.90;;;;;;6202257;23;20194;-80
2022/09/25 04:48:38;;;;;;;10.60;10.30;;;12.20;99.90;;;;;;6202086;23;20271;-80
2022/09/25 04:51:06;;;;;;;10.60;10.30;;;12.20;99.90;;;;;;6201881;23;20199;-80
2022/09/25 04:53:35;;;;;;;10.60;10.30;;;12.10;99.90;;;;;;6200258;23;20200;-80
2022/09/25 04:56:07;;;;;;;10.77;10.43;;;12.10;99.90;;;;;;6204232;23;20192;-80
2022/09/25 04:58:37;;;;;;;10.50;10.20;;;12.10;99.90;;;;;;6214391;23;20251;-79
2022/09/25 05:01:07;;;;;;;10.70;10.40;;;12.10;99.90;;;;;;6213410;23;20196;-79
2022/09/25 05:03:35;;;;;;;10.90;10.50;;;12.00;99.90;;;;;;6204174;23;20209;-80
2022/09/25 05:06:02;;;;;;;10.80;10.40;;;12.00;99.90;;;;;;6202037;23;20238;-80
2022/09/25 05:08:30;;;;;;;11.10;10.70;;;12.00;99.90;;;;;;6201335;23;20200;-80
2022/09/25 05:10:57;;;;;;;11.03;10.63;;;12.00;99.90;;;;;;6201908;23;20283;-79
2022/09/25 05:13:27;;;;;;;11.10;10.70;;;11.90;99.90;;;;;;6201262;23;20208;-80
2022/09/25 05:15:56;;;;;;;11.10;10.70;;;11.90;99.90;;;;;;6196897;23;20211;-79
2022/09/25 05:18:24;;;;;;;11.07;10.67;;;11.90;99.90;;;;;;6197204;23;20200;-79
2022/09/25 05:20:53;;;;;;;11.00;10.60;;;12.00;99.90;;;;;;6196618;23;20202;-79
2022/09/25 05:23:22;;;;;;;11.10;10.70;;;12.00;99.90;;;;;;6196941;23;20248;-79
2022/09/25 05:25:57;;;;;;;10.63;10.23;;;12.00;99.90;;;;;;6195613;23;20239;-79
2022/09/25 05:28:26;;;;;;;10.47;10.17;;;12.00;99.90;;;;;;6196620;23;20190;-79
2022/09/25 05:30:53;;;;;;;10.40;10.10;;;12.00;99.90;;;;;;6196209;23;20235;-79
2022/09/25 05:33:21;;;;;;;10.40;10.10;;;12.00;99.90;;;;;;6196540;23;20192;-79
2022/09/25 05:35:48;;;;;;;10.10;9.80;;;12.00;99.90;;;;;;6195507;23;20203;-79
2022/09/25 05:38:16;;;;;;;10.20;9.90;;;12.10;99.90;;;;;;6196474;23;20282;-79
2022/09/25 05:40:43;;;;;;;10.23;9.93;;;12.10;99.90;;;;;;6196995;23;20219;-79
2022/09/25 05:43:11;;;;;;;10.20;9.90;;;12.00;99.90;;;;;;6197022;23;20226;-79
2022/09/25 05:45:41;;;;;;;10.20;9.90;;;12.00;99.90;;;;;;6196865;23;20208;-79
2022/09/25 05:48:09;;;;;;;10.30;10.00;;;12.10;99.90;;;;;;6204083;23;20198;-79
2022/09/25 05:50:36;;;;;;;10.57;10.27;;;12.10;99.90;;;;;;6203140;23;20191;-79
2022/09/25 05:53:05;;;;;;;10.10;9.80;;;12.10;99.90;;;;;;6197868;23;20271;-79
2022/09/25 05:55:33;;;;;;;10.17;9.87;;;12.00;99.90;;;;;;6195980;23;20216;-79
2022/09/25 05:58:02;;;;;;;10.10;9.80;;;12.00;99.90;;;;;;6197741;23;20264;-79
2022/09/25 06:00:31;;;;;;;10.10;9.80;;;12.00;99.90;;;;;;6197131;23;20203;-78
2022/09/25 06:03:00;;;;;;;10.10;9.80;;;12.00;99.90;;;;;;6196973;23;20215;-79
2022/09/25 06:05:27;;;;;;;10.00;9.70;;;12.00;99.90;;;;;;6196228;23;20207;-79
2022/09/25 06:07:55;;;;;;;10.00;9.70;;;12.00;99.90;;;;;;6196778;23;20198;-79
2022/09/25 06:10:24;;;;;;;10.27;9.97;;;12.00;99.90;;;;;;6197218;23;20692;-79
2022/09/25 06:12:54;;;;;;;10.00;9.70;;;12.00;99.90;;;;;;6197337;23;20199;-79
2022/09/25 06:15:23;;;;;;;10.10;9.80;;;12.00;99.90;;;;;;6196070;23;20207;-79
2022/09/25 06:17:50;;;;;;;10.03;9.73;;;12.00;99.90;;;;;;6197247;23;20215;-79
2022/09/25 06:20:19;;;;;;;10.00;9.70;;;12.10;99.90;;;;;;6196148;23;20214;-79
2022/09/25 06:22:53;;;;;;;10.10;9.80;;;12.10;99.90;;;;;;6197026;23;20223;-79
2022/09/25 06:25:20;;;;;;;10.10;9.80;;;12.10;99.90;;;;;;6195996;23;20268;-79
2022/09/25 06:27:48;;;;;;;10.23;9.93;;;12.10;99.90;;;;;;6196935;23;20195;-79
2022/09/25 06:30:17;;;;;;;10.00;9.70;;;12.10;99.90;;;;;;6197333;23;20195;-79
2022/09/25 06:32:45;;;;;;;10.00;9.70;;;12.10;99.90;;;;;;6197155;23;20191;-79
2022/09/25 06:35:13;;;;;;;9.93;9.63;;;12.20;99.90;;;;;;6196223;23;20227;-78
2022/09/25 06:37:42;;;;;;;10.10;9.80;;;12.20;99.90;;;;;;6197010;23;20207;-79
2022/09/25 06:40:10;;;;;;;9.93;9.63;;;12.20;99.90;;;;;;6196571;23;20199;-79
2022/09/25 06:42:38;;;;;;;9.90;9.60;;;12.20;99.90;;;;;;6196029;23;20203;-80
2022/09/25 06:45:06;;;;;;;9.80;9.50;;;12.20;99.90;;;;;;6195425;23;20210;-79
2022/09/25 06:47:34;;;;;;;10.00;9.70;;;12.20;99.90;;;;;;6195891;23;20210;-79
2022/09/25 06:50:01;;;;;;;10.20;9.90;;;12.20;99.90;;;;;;6196652;23;20232;-79
2022/09/25 06:52:28;;;;;;;10.13;9.83;;;12.20;99.90;;;;;;6201909;23;20213;-79
2022/09/25 06:54:57;;;;;;;10.00;9.70;;;12.10;99.90;;;;;;6196275;23;20203;-79
2022/09/25 06:57:25;;;;;;;9.87;9.57;;;12.20;99.90;;;;;;6196997;23;20239;-79
2022/09/25 06:59:52;;;;;;;9.90;9.60;;;12.20;99.90;;;;;;6196673;23;20215;-79
2022/09/25 07:05:14;;;;;;;10.10;9.80;;;12.20;99.90;;;;;;6159766;23;20199;-81
2022/09/25 07:07:41;;;;;;;10.50;10.20;;;12.30;99.90;;;;;;6195652;23;20450;-79
2022/09/25 07:10:11;;;;;;;10.27;9.97;;;12.30;99.90;;;;;;6196203;23;20206;-80
2022/09/25 07:12:40;;;;;;;10.17;9.87;;;12.40;99.90;;;;;;6196512;23;20290;-81
2022/09/25 07:15:10;;;;;;;10.07;9.77;;;12.50;99.90;;;;;;6200606;23;20227;-80
2022/09/25 07:17:41;;;;;;;10.27;9.97;;;12.50;99.90;;;;;;6210543;23;20219;-80
2022/09/25 07:20:11;;;;;;;10.20;9.90;;;12.60;99.90;;;;;;6207819;23;20256;-80
2022/09/25 07:22:39;;;;;;;10.30;10.00;;;12.60;99.90;;;;;;6208028;23;20171;-81
2022/09/25 07:25:08;;;;;;;10.00;9.70;;;12.60;99.90;;;;;;6207163;23;20259;-80
2022/09/25 07:27:37;;;;;;;10.10;9.80;;;12.60;99.90;;;;;;6207793;23;20223;-80
2022/09/25 07:30:08;;;;;;;10.30;10.00;;;12.60;99.90;;;;;;6207230;23;20211;-80
2022/09/25 07:32:35;;;;;;;10.23;9.93;;;12.70;99.90;;;;;;6207271;23;20194;-79
2022/09/25 07:35:03;;;;;;;10.10;9.80;;;12.90;99.90;;;;;;6206699;23;20260;-81
2022/09/25 07:37:31;;;;;;;10.00;9.70;;;12.90;99.90;;;;;;6208104;23;20207;-82
2022/09/25 07:39:58;;;;;;;9.90;9.60;;;13.00;99.90;;;;;;6208870;23;20219;-80
2022/09/25 07:42:26;;;;;;;9.80;9.50;;;13.10;99.90;;;;;;6203978;23;20235;-79
2022/09/25 07:44:56;;;;;;;9.70;9.40;;;13.20;99.90;;;;;;6203391;23;20219;-80
2022/09/25 07:47:24;;;;;;;9.50;9.20;;;13.30;99.90;;;;;;6196556;23;20219;-80
2022/09/25 07:49:51;;;;;;;9.60;9.30;;;13.30;99.90;;;;;;6196948;23;20243;-80
2022/09/25 07:52:19;;;;;;;9.63;9.33;;;13.40;99.90;;;;;;6197467;23;20283;-80
2022/09/25 07:54:46;;;;;;;9.87;9.57;;;13.50;99.90;;;;;;6195894;23;20227;-80
2022/09/25 07:57:14;;;;;;;9.60;9.30;;;13.60;99.90;;;;;;6198829;23;20205;-83
2022/09/25 07:59:42;;;;;;;9.60;9.30;;;13.60;99.90;;;;;;6199101;23;20210;-82
2022/09/25 08:02:12;;;;;;;9.70;9.40;;;13.60;99.90;;;;;;6199004;23;20279;-82
2022/09/25 08:04:42;;;;;;;9.37;9.07;;;13.60;99.90;;;;;;6197590;23;20207;-82
2022/09/25 08:07:11;;;;;;;9.47;9.17;;;13.60;99.90;;;;;;6198235;23;20200;-82
2022/09/25 08:09:40;;;;;;;9.30;9.00;;;13.60;99.90;;;;;;6198866;23;20204;-82
2022/09/25 08:12:13;;;;;;;9.33;9.03;;;13.60;99.90;;;;;;6198050;23;20196;-81
2022/09/25 08:14:42;;;;;;;9.00;8.70;;;13.70;99.90;;;;;;6197495;23;20208;-82
2022/09/25 08:17:12;;;;;;;9.10;8.80;;;13.70;99.90;;;;;;6197599;23;20195;-81
2022/09/25 08:19:42;;;;;;;8.90;8.60;;;13.70;99.90;;;;;;6198009;23;20207;-82
2022/09/25 08:22:14;;;;;;;9.10;8.80;;;13.70;99.90;;;;;;6197848;23;20206;-83
2022/09/25 08:24:42;;;;;;;9.40;9.10;;;13.80;99.90;;;;;;6198344;23;20203;-81
2022/09/25 08:27:09;;;;;;;9.30;9.00;;;13.80;99.90;;;;;;6215282;22;20190;-80
2022/09/25 08:29:38;;;;;;;9.17;8.87;;;13.90;99.90;;;;;;6203238;23;20199;-82
2022/09/25 08:32:07;;;;;;;9.40;9.10;;;13.90;99.90;;;;;;6199655;23;20202;-82
2022/09/25 08:34:48;;;;;;;9.10;8.80;;;14.00;99.90;;;;;;6200125;23;20207;-81
2022/09/25 08:37:18;;;;;;;9.00;8.70;;;14.10;99.90;;;;;;6197877;23;20278;-82
2022/09/25 08:39:46;;;;;;;9.10;8.80;;;14.10;99.90;;;;;;6197444;23;20199;-82
2022/09/25 08:42:23;;;;;;;8.90;8.60;;;14.20;99.90;;;;;;6196772;23;20291;-81
2022/09/25 08:49:00;;;;;;;9.20;8.90;;;14.20;99.90;;;;;;6198466;23;20212;-82
2022/09/25 08:50:30;;;;;;;9.20;8.90;;;14.30;99.90;;;;;;6203248;23;20192;-82
2022/09/25 08:53:05;;;;;;;8.90;8.60;;;14.30;99.90;;;;;;6199665;23;20267;-82
2022/09/25 08:58:25;;;;;;;9.47;9.17;;;14.20;99.90;;;;;;6198493;23;20183;-82
2022/09/25 09:01:00;;;;;;;9.50;9.20;;;14.20;99.90;;;;;;6198022;23;20202;-82
2022/09/25 09:03:30;;;;;;;9.20;8.90;;;14.30;99.90;;;;;;6197213;23;20191;-82
2022/09/25 09:06:06;;;;;;;9.00;8.70;;;14.30;99.90;;;;;;6196786;23;20230;-82
2022/09/25 09:08:37;;;;;;;9.40;9.10;;;14.30;99.90;;;;;;6198018;23;20290;-82
2022/09/25 09:11:09;;;;;;;9.10;8.80;;;14.30;99.90;;;;;;6197935;23;20196;-82
2022/09/25 09:13:44;;;;;;;9.10;8.80;;;14.30;99.90;;;;;;6197777;23;20267;-82
2022/09/25 09:16:23;;;;;;;8.60;8.40;;;14.50;99.90;;;;;;6197177;23;20245;-82
2022/09/25 09:18:52;;;;;;;8.98;8.68;;;14.60;99.90;;;;;;6197511;23;20183;-82
2022/09/25 09:21:31;;;;;;;8.60;8.40;;;14.80;99.90;;;;;;6198099;23;20291;-82
2022/09/25 09:24:07;;;;;;;8.80;8.55;;;14.90;99.90;;;;;;6197759;23;20199;-82
2022/09/25 09:26:51;;;;;;;8.50;8.30;;;15.10;99.90;;;;;;6196843;23;20197;-82
2022/09/25 09:29:56;;;;;;;8.60;8.40;;;15.20;99.90;;;;;;6197502;23;20198;-82
2022/09/25 09:32:50;;;;;;;8.57;8.38;;;15.30;99.90;;;;;;6197513;23;20211;-82
2022/09/25 09:35:29;;;;;;;8.40;8.20;;;15.50;99.90;;;;;;6196501;23;20261;-82
2022/09/25 09:38:14;;;;;;;8.60;8.40;;;15.70;99.90;;;;;;6197126;23;20192;-82
2022/09/25 09:41:06;;;;;;;8.43;8.23;;;15.80;99.90;;;;;;6198963;23;20199;-82
2022/09/25 09:43:57;;;;;;;8.50;8.30;;;15.80;99.90;;;;;;6197771;23;20224;-82
2022/09/25 09:46:39;;;;;;;8.60;8.40;;;15.80;99.90;;;;;;6197193;23;20243;-82
2022/09/25 09:49:19;;;;;;;8.55;8.35;;;15.80;99.90;;;;;;6197946;23;20192;-82
2022/09/25 09:51:53;;;;;;;8.32;8.13;;;15.80;99.90;;;;;;6197376;23;20262;-82
2022/09/25 09:54:31;;;;;;;8.32;8.13;;;15.80;99.90;;;;;;6197332;23;20234;-82
2022/09/25 09:57:05;;;;;;;8.65;8.45;;;15.70;99.90;;;;;;6197132;23;20187;-82
2022/09/25 09:59:46;;;;;;;8.63;8.43;;;15.80;99.90;;;;;;6197723;23;20255;-82
2022/09/25 10:02:43;;;;;;;8.80;8.60;;;15.80;99.90;;;;;;6198526;23;20308;-81
2022/09/25 10:05:24;;;;;;;8.70;8.50;;;15.90;99.90;;;;;;6196614;23;20231;-82
2022/09/25 10:07:53;;;;;;;8.40;8.20;;;16.10;99.90;;;;;;6197454;23;20647;-82
2022/09/25 10:10:37;;;;;;;8.70;8.50;;;16.30;99.90;;;;;;6198705;23;20282;-82
2022/09/25 10:13:09;;;;;;;8.48;8.27;;;16.60;99.90;;;;;;6198068;23;20198;-82
2022/09/25 10:15:44;;;;;;;8.50;8.30;;;16.60;99.90;;;;;;6197228;23;20219;-82
2022/09/25 10:18:14;;;;;;;8.40;8.20;;;16.50;99.90;;;;;;6198716;23;20187;-82
2022/09/25 10:20:46;;;;;;;8.60;8.40;;;16.50;99.90;;;;;;6198010;23;20689;-82
2022/09/25 10:23:32;;;;;;;8.50;8.30;;;16.60;99.90;;;;;;6198810;23;20207;-82
2022/09/25 10:26:01;;;;;;;8.85;8.65;;;16.80;99.90;;;;;;6197632;23;20215;-82
2022/09/25 10:28:33;;;;;;;9.15;8.85;;;16.80;99.90;;;;;;6198071;23;20214;-82
2022/09/25 10:31:03;;;;;;;9.05;8.77;;;16.90;99.90;;;;;;6197741;23;20199;-82
2022/09/25 10:33:31;;;;;;;9.02;8.73;;;17.00;99.90;;;;;;6197822;23;20207;-82
2022/09/25 10:35:59;;;;;;;9.27;8.98;;;17.20;99.90;;;;;;6197307;23;20298;-81
2022/09/25 10:38:40;;;;;;;9.50;9.20;;;17.70;99.90;;;;;;6197976;23;20302;-82
2022/09/25 10:41:12;;;;;;;9.20;8.90;;;18.50;99.90;;;;;;6202634;23;20200;-82
2022/09/25 10:44:02;;;;;;;8.70;8.50;;;19.10;99.90;;;;;;6198493;23;20282;-82
2022/09/25 10:52:08;;;;;;;8.70;8.50;;;19.20;99.90;;;;;;6198475;23;20180;-82
2022/09/25 10:54:37;;;;;;;8.65;8.45;;;18.60;99.90;;;;;;6197102;23;20255;-82
2022/09/25 10:57:22;;;;;;;8.80;8.60;;;18.20;99.90;;;;;;6197478;23;20211;-82
2022/09/25 10:59:51;;;;;;;9.07;8.77;;;18.00;99.90;;;;;;6197453;23;20195;-82
2022/09/25 11:02:31;;;;;;;9.30;9.00;;;17.80;99.90;;;;;;6197188;23;20207;-82
2022/09/25 11:04:59;;;;;;;9.00;8.70;;;17.70;99.90;;;;;;6197298;23;20222;-82
2022/09/25 11:07:27;;;;;;;9.20;8.90;;;17.70;99.90;;;;;;6197077;23;20733;-81
2022/09/25 11:09:57;;;;;;;9.45;9.15;;;17.70;99.90;;;;;;6197365;23;20270;-82
2022/09/25 11:12:29;;;;;;;9.80;9.50;;;18.00;99.90;;;;;;6197555;23;20231;-81
2022/09/25 11:15:00;;;;;;;9.55;9.25;;;18.60;99.90;;;;;;6197106;23;20279;-82
2022/09/25 11:17:40;;;;;;;9.50;9.20;;;19.00;99.90;;;;;;6197643;23;20207;-81
2022/09/25 11:20:28;;;;;;;9.60;9.30;;;19.30;99.90;;;;;;6197148;23;20202;-82
2022/09/25 11:23:28;;;;;;;9.52;9.23;;;19.60;99.90;;;;;;6197133;23;20196;-82
2022/09/25 11:26:06;;;;;;;9.30;9.00;;;19.80;99.90;;;;;;6196591;23;20278;-82
2022/09/25 11:28:43;;;;;;;8.75;8.55;;;19.40;99.90;;;;;;6198034;23;20191;-82
2022/09/25 11:31:17;;;;;;;9.20;8.90;;;18.90;99.90;;;;;;6198333;23;20221;-82
2022/09/25 11:33:54;;;;;;;8.70;8.50;;;18.80;99.90;;;;;;6197725;23;20290;-82
2022/09/25 11:36:29;;;;;;;9.00;8.77;;;18.60;99.90;;;;;;6197518;23;20215;-82
2022/09/25 11:42:00;;;;;;;9.00;8.80;;;17.70;99.90;;;;;;6198414;23;20206;-82
2022/09/25 11:44:37;;;;;;;9.05;8.82;;;16.90;99.90;;;;;;6198022;23;20231;-82
2022/09/25 11:47:14;;;;;;;9.18;8.88;;;16.30;99.90;;;;;;6197916;23;20223;-81
2022/09/25 11:49:42;;;;;;;9.60;9.30;;;16.10;99.90;;;;;;6198314;23;20195;-81
2022/09/25 11:52:38;;;;;;;9.30;9.00;;;16.10;99.90;;;;;;6203138;23;20191;-81
2022/09/25 11:55:38;;;;;;;9.32;9.02;;;15.90;99.90;;;;;;6204690;23;20283;-82
2022/09/25 11:58:44;;;;;;;9.45;9.15;;;15.60;99.90;;;;;;6199803;23;20280;-82
2022/09/25 12:01:29;;;;;;;9.10;8.80;;;15.50;99.90;;;;;;6195521;23;20286;-82
2022/09/25 12:04:37;;;;;;;8.90;8.60;;;15.50;99.90;;;;;;6203131;23;20195;-83
2022/09/25 12:07:34;;;;;;;9.13;8.82;;;15.40;99.90;;;;;;6193155;23;20196;-82
2022/09/25 12:10:22;;;;;;;9.10;8.80;;;15.50;99.90;;;;;;6200359;23;20219;-81
2022/09/25 12:13:00;;;;;;;9.20;8.90;;;15.50;99.90;;;;;;6201525;23;20252;-82
2022/09/25 12:15:43;;;;;;;9.10;8.80;;;15.60;99.90;;;;;;6199848;23;20215;-82
2022/09/25 12:18:23;;;;;;;9.15;8.85;;;15.70;99.90;;;;;;6203476;23;20205;-80
2022/09/25 12:20:59;;;;;;;9.10;8.80;;;15.80;99.90;;;;;;6206619;23;20215;-82
2022/09/25 12:23:32;;;;;;;9.10;8.80;;;15.90;99.90;;;;;;6203824;23;20223;-82
2022/09/25 12:26:15;;;;;;;8.88;8.60;;;16.10;99.90;;;;;;6206790;23;20290;-81
2022/09/25 12:29:02;;;;;;;8.65;8.45;;;16.20;99.90;;;;;;6207555;23;20281;-79
2022/09/25 12:31:43;;;;;;;8.68;8.48;;;16.60;99.90;;;;;;6210703;23;20227;-80
2022/09/25 12:34:29;;;;;;;8.27;8.07;;;17.10;99.90;;;;;;6204222;23;20192;-79
2022/09/25 12:37:19;;;;;;;8.80;8.60;;;17.60;99.90;;;;;;6205886;23;20196;-79
2022/09/25 12:39:53;;;;;;;8.82;8.63;;;17.90;99.90;;;;;;6205898;23;20199;-79
2022/09/25 12:42:25;;;;;;;8.60;8.40;;;18.10;99.90;;;;;;6206065;23;20214;-79
2022/09/25 12:44:59;;;;;;;9.13;8.82;;;18.20;99.90;;;;;;6204135;23;20203;-81
2022/09/25 12:47:33;;;;;;;9.10;8.80;;;18.00;99.90;;;;;;6205387;23;20285;-80
2022/09/25 12:50:09;;;;;;;8.98;8.70;;;18.10;99.90;;;;;;6206016;23;20225;-80
2022/09/25 12:52:42;;;;;;;9.23;8.93;;;18.30;99.90;;;;;;6204092;23;20201;-79
2022/09/25 12:55:17;;;;;;;9.10;8.80;;;18.40;99.90;;;;;;6203545;23;20215;-79
2022/09/25 12:57:49;;;;;;;9.20;8.90;;;18.30;99.90;;;;;;6198649;23;20205;-77
2022/09/25 13:00:20;;;;;;;8.93;8.73;;;18.10;99.90;;;;;;6204111;23;20191;-79
2022/09/25 13:02:55;;;;;;;8.90;8.70;;;18.00;99.90;;;;;;6200507;23;20220;-80
2022/09/25 13:05:32;;;;;;;9.00;8.80;;;17.80;99.90;;;;;;6200775;23;20215;-82
2022/09/25 13:08:10;;;;;;;9.30;9.00;;;17.60;99.90;;;;;;6203471;23;20200;-79
2022/09/25 13:10:42;;;;;;;9.00;8.70;;;17.30;99.90;;;;;;6204121;23;20219;-80
2022/09/25 13:13:18;;;;;;;9.10;8.80;;;17.10;99.90;;;;;;6197716;23;20188;-81
2022/09/25 13:15:49;;;;;;;9.30;9.00;;;16.50;99.90;;;;;;6195555;23;20207;-80
2022/09/25 13:18:20;;;;;;;9.13;8.82;;;15.90;99.90;;;;;;6197161;23;20231;-81
2022/09/25 13:20:54;;;;;;;9.38;9.07;;;15.60;99.90;;;;;;6198197;23;20201;-81
2022/09/25 13:23:33;;;;;;;9.48;9.18;;;15.40;99.90;;;;;;6197975;23;20193;-80
2022/09/25 13:26:10;;;;;;;9.40;9.10;;;15.20;99.90;;;;;;6195923;23;20238;-80
2022/09/25 13:28:40;;;;;;;9.80;9.50;;;15.00;99.90;;;;;;6197583;23;20198;-80
2022/09/25 13:31:11;;;;;;;9.50;9.20;;;15.00;99.90;;;;;;6197635;23;20191;-81
2022/09/25 13:33:49;;;;;;;9.45;9.15;;;15.10;99.90;;;;;;6197713;23;20219;-79